sensor_id;sensor_type;location;lat;lon;timestamp;P1;durP1;ratioP1;P2;durP2;ratioP2
52868;SDS011;39100;53.480;6.158;2023-01-06T00:01:31;13.73;;;4.72;;
52868;SDS011;39100;53.480;6.158;2023-01-06T00:03:58;12.07;;;5.13;;
52868;SDS011;39100;53.480;6.158;2023-01-06T00:06:24;14.07;;;4.60;;
52868;SDS011;39100;53.480;6.158;2023-01-06T00:08:55;15.00;;;4.22;;
52868;SDS011;39100;53.480;6.158;2023-01-06T00:11:22;11.55;;;3.92;;
52868;SDS011;39100;53.480;6.158;2023-01-06T00:13:48;16.40;;;5.05;;
52868;SDS011;39100;53.480;6.158;2023-01-06T00:16:15;11.88;;;3.85;;
52868;SDS011;39100;53.480;6.158;2023-01-06T00:18:42;10.43;;;4.05;;
52868;SDS011;39100;53.480;6.158;2023-01-06T00:21:09;13.85;;;3.83;;
52868;SDS011;39100;53.480;6.158;2023-01-06T00:23:35;12.50;;;2.70;;
52868;SDS011;39100;53.480;6.158;2023-01-06T00:26:02;6.53;;;2.45;;
52868;SDS011;39100;53.480;6.158;2023-01-06T00:28:28;9.68;;;2.70;;
52868;SDS011;39100;53.480;6.158;2023-01-06T00:30:54;10.52;;;2.60;;
52868;SDS011;39100;53.480;6.158;2023-01-06T00:33:21;14.63;;;2.58;;
52868;SDS011;39100;53.480;6.158;2023-01-06T00:35:47;12.80;;;2.47;;
52868;SDS011;39100;53.480;6.158;2023-01-06T00:38:12;10.90;;;2.47;;
52868;SDS011;39100;53.480;6.158;2023-01-06T00:40:38;8.40;;;2.38;;
52868;SDS011;39100;53.480;6.158;2023-01-06T00:43:04;10.80;;;2.40;;
52868;SDS011;39100;53.480;6.158;2023-01-06T00:45:29;9.63;;;2.03;;
52868;SDS011;39100;53.480;6.158;2023-01-06T00:47:55;10.32;;;1.98;;
52868;SDS011;39100;53.480;6.158;2023-01-06T00:50:20;11.48;;;2.72;;
52868;SDS011;39100;53.480;6.158;2023-01-06T00:52:46;8.50;;;1.88;;
52868;SDS011;39100;53.480;6.158;2023-01-06T00:55:12;9.32;;;2.17;;
52868;SDS011;39100;53.480;6.158;2023-01-06T00:57:38;11.75;;;1.67;;
52868;SDS011;39100;53.480;6.158;2023-01-06T01:00:05;12.95;;;2.55;;
52868;SDS011;39100;53.480;6.158;2023-01-06T01:02:32;6.18;;;0.95;;
52868;SDS011;39100;53.480;6.158;2023-01-06T01:04:58;5.90;;;1.38;;
52868;SDS011;39100;53.480;6.158;2023-01-06T01:07:23;5.22;;;1.20;;
52868;SDS011;39100;53.480;6.158;2023-01-06T01:09:49;11.70;;;1.90;;
52868;SDS011;39100;53.480;6.158;2023-01-06T01:12:15;12.60;;;1.30;;
52868;SDS011;39100;53.480;6.158;2023-01-06T01:14:51;8.68;;;3.05;;
52868;SDS011;39100;53.480;6.158;2023-01-06T01:17:27;11.48;;;2.13;;
52868;SDS011;39100;53.480;6.158;2023-01-06T01:19:54;7.90;;;1.27;;
52868;SDS011;39100;53.480;6.158;2023-01-06T01:22:22;9.68;;;2.53;;
52868;SDS011;39100;53.480;6.158;2023-01-06T01:24:48;7.78;;;2.17;;
52868;SDS011;39100;53.480;6.158;2023-01-06T01:27:14;11.57;;;2.13;;
52868;SDS011;39100;53.480;6.158;2023-01-06T01:29:40;3.20;;;0.93;;
52868;SDS011;39100;53.480;6.158;2023-01-06T01:32:05;7.05;;;1.33;;
52868;SDS011;39100;53.480;6.158;2023-01-06T01:34:31;5.75;;;2.05;;
52868;SDS011;39100;53.480;6.158;2023-01-06T01:36:57;9.13;;;1.65;;
52868;SDS011;39100;53.480;6.158;2023-01-06T01:39:24;6.00;;;1.58;;
52868;SDS011;39100;53.480;6.158;2023-01-06T01:41:51;8.10;;;1.58;;
52868;SDS011;39100;53.480;6.158;2023-01-06T01:47:12;3.47;;;0.85;;
52868;SDS011;39100;53.480;6.158;2023-01-06T01:49:41;8.50;;;1.17;;
52868;SDS011;39100;53.480;6.158;2023-01-06T01:52:08;9.77;;;1.42;;
52868;SDS011;39100;53.480;6.158;2023-01-06T01:54:35;4.85;;;1.73;;
52868;SDS011;39100;53.480;6.158;2023-01-06T01:57:04;9.57;;;1.83;;
52868;SDS011;39100;53.480;6.158;2023-01-06T01:59:34;9.65;;;1.20;;
52868;SDS011;39100;53.480;6.158;2023-01-06T02:02:02;6.03;;;0.93;;
52868;SDS011;39100;53.480;6.158;2023-01-06T02:04:28;6.47;;;2.60;;
52868;SDS011;39100;53.480;6.158;2023-01-06T02:06:57;3.97;;;1.33;;
52868;SDS011;39100;53.480;6.158;2023-01-06T02:09:24;5.57;;;1.60;;
52868;SDS011;39100;53.480;6.158;2023-01-06T02:12:03;8.82;;;1.55;;
52868;SDS011;39100;53.480;6.158;2023-01-06T02:14:29;6.63;;;1.65;;
52868;SDS011;39100;53.480;6.158;2023-01-06T02:17:07;7.47;;;2.22;;
52868;SDS011;39100;53.480;6.158;2023-01-06T02:22:33;11.20;;;1.33;;
52868;SDS011;39100;53.480;6.158;2023-01-06T02:25:34;7.50;;;1.00;;
52868;SDS011;39100;53.480;6.158;2023-01-06T02:30:59;5.13;;;1.00;;
52868;SDS011;39100;53.480;6.158;2023-01-06T02:33:45;6.00;;;1.45;;
52868;SDS011;39100;53.480;6.158;2023-01-06T02:39:12;2.70;;;0.60;;
52868;SDS011;39100;53.480;6.158;2023-01-06T02:41:42;3.40;;;1.35;;
52868;SDS011;39100;53.480;6.158;2023-01-06T02:46:50;5.55;;;1.17;;
52868;SDS011;39100;53.480;6.158;2023-01-06T02:49:30;5.70;;;0.63;;
52868;SDS011;39100;53.480;6.158;2023-01-06T02:57:30;2.50;;;0.80;;
52868;SDS011;39100;53.480;6.158;2023-01-06T03:00:07;4.43;;;0.88;;
52868;SDS011;39100;53.480;6.158;2023-01-06T03:02:38;3.22;;;0.75;;
52868;SDS011;39100;53.480;6.158;2023-01-06T03:05:06;5.45;;;0.98;;
52868;SDS011;39100;53.480;6.158;2023-01-06T03:07:35;3.03;;;0.52;;
52868;SDS011;39100;53.480;6.158;2023-01-06T03:10:03;5.45;;;1.02;;
52868;SDS011;39100;53.480;6.158;2023-01-06T03:15:07;2.05;;;0.40;;
52868;SDS011;39100;53.480;6.158;2023-01-06T03:17:33;2.25;;;0.47;;
52868;SDS011;39100;53.480;6.158;2023-01-06T03:19:58;3.42;;;0.82;;
52868;SDS011;39100;53.480;6.158;2023-01-06T03:22:24;4.47;;;0.50;;
52868;SDS011;39100;53.480;6.158;2023-01-06T03:24:50;3.88;;;0.52;;
52868;SDS011;39100;53.480;6.158;2023-01-06T03:27:16;3.67;;;0.82;;
52868;SDS011;39100;53.480;6.158;2023-01-06T03:29:45;6.32;;;1.15;;
52868;SDS011;39100;53.480;6.158;2023-01-06T03:32:14;4.05;;;0.95;;
52868;SDS011;39100;53.480;6.158;2023-01-06T03:43:22;1.90;;;0.20;;
52868;SDS011;39100;53.480;6.158;2023-01-06T03:48:48;4.20;;;0.40;;
52868;SDS011;39100;53.480;6.158;2023-01-06T03:56:50;4.60;;;0.77;;
52868;SDS011;39100;53.480;6.158;2023-01-06T03:59:24;2.20;;;0.60;;
52868;SDS011;39100;53.480;6.158;2023-01-06T04:01:52;5.78;;;0.85;;
52868;SDS011;39100;53.480;6.158;2023-01-06T04:04:18;1.90;;;0.63;;
52868;SDS011;39100;53.480;6.158;2023-01-06T04:06:44;5.55;;;1.27;;
52868;SDS011;39100;53.480;6.158;2023-01-06T04:09:10;2.45;;;1.00;;
52868;SDS011;39100;53.480;6.158;2023-01-06T04:11:36;4.53;;;1.45;;
52868;SDS011;39100;53.480;6.158;2023-01-06T04:14:20;1.98;;;1.63;;
52868;SDS011;39100;53.480;6.158;2023-01-06T04:16:46;7.03;;;2.33;;
52868;SDS011;39100;53.480;6.158;2023-01-06T04:19:11;2.75;;;2.05;;
52868;SDS011;39100;53.480;6.158;2023-01-06T04:21:37;3.17;;;2.88;;
52868;SDS011;39100;53.480;6.158;2023-01-06T04:24:02;5.13;;;2.85;;
52868;SDS011;39100;53.480;6.158;2023-01-06T04:26:28;7.63;;;3.92;;
52868;SDS011;39100;53.480;6.158;2023-01-06T04:28:54;6.63;;;3.90;;
52868;SDS011;39100;53.480;6.158;2023-01-06T04:31:20;5.05;;;2.53;;
52868;SDS011;39100;53.480;6.158;2023-01-06T04:33:45;3.35;;;2.78;;
52868;SDS011;39100;53.480;6.158;2023-01-06T04:36:11;6.95;;;3.38;;
52868;SDS011;39100;53.480;6.158;2023-01-06T04:38:37;4.95;;;3.22;;
52868;SDS011;39100;53.480;6.158;2023-01-06T04:41:02;5.93;;;3.30;;
52868;SDS011;39100;53.480;6.158;2023-01-06T04:43:28;4.03;;;3.10;;
52868;SDS011;39100;53.480;6.158;2023-01-06T04:45:56;5.80;;;3.00;;
52868;SDS011;39100;53.480;6.158;2023-01-06T04:48:23;4.63;;;3.08;;
52868;SDS011;39100;53.480;6.158;2023-01-06T04:50:49;6.07;;;2.42;;
52868;SDS011;39100;53.480;6.158;2023-01-06T04:53:23;7.55;;;3.53;;
52868;SDS011;39100;53.480;6.158;2023-01-06T04:55:48;8.50;;;2.97;;
52868;SDS011;39100;53.480;6.158;2023-01-06T04:58:14;3.30;;;2.40;;
52868;SDS011;39100;53.480;6.158;2023-01-06T05:00:39;4.25;;;2.72;;
52868;SDS011;39100;53.480;6.158;2023-01-06T05:03:05;3.58;;;3.10;;
52868;SDS011;39100;53.480;6.158;2023-01-06T05:05:31;5.35;;;2.22;;
52868;SDS011;39100;53.480;6.158;2023-01-06T05:07:56;3.08;;;1.90;;
52868;SDS011;39100;53.480;6.158;2023-01-06T05:10:22;5.10;;;2.28;;
52868;SDS011;39100;53.480;6.158;2023-01-06T05:12:47;2.70;;;1.90;;
52868;SDS011;39100;53.480;6.158;2023-01-06T05:15:13;6.55;;;2.47;;
52868;SDS011;39100;53.480;6.158;2023-01-06T05:17:38;5.65;;;1.52;;
52868;SDS011;39100;53.480;6.158;2023-01-06T05:20:04;4.32;;;1.77;;
52868;SDS011;39100;53.480;6.158;2023-01-06T05:22:31;4.45;;;1.73;;
52868;SDS011;39100;53.480;6.158;2023-01-06T05:24:56;2.53;;;1.35;;
52868;SDS011;39100;53.480;6.158;2023-01-06T05:27:22;3.05;;;1.35;;
52868;SDS011;39100;53.480;6.158;2023-01-06T05:29:48;1.67;;;1.20;;
52868;SDS011;39100;53.480;6.158;2023-01-06T05:32:13;4.68;;;1.70;;
52868;SDS011;39100;53.480;6.158;2023-01-06T05:34:39;3.67;;;1.40;;
52868;SDS011;39100;53.480;6.158;2023-01-06T05:37:04;5.30;;;1.50;;
52868;SDS011;39100;53.480;6.158;2023-01-06T05:39:30;3.58;;;1.38;;
52868;SDS011;39100;53.480;6.158;2023-01-06T05:41:55;4.68;;;2.05;;
52868;SDS011;39100;53.480;6.158;2023-01-06T05:44:21;2.53;;;1.50;;
52868;SDS011;39100;53.480;6.158;2023-01-06T05:46:47;3.53;;;1.30;;
52868;SDS011;39100;53.480;6.158;2023-01-06T05:49:12;2.25;;;1.27;;
52868;SDS011;39100;53.480;6.158;2023-01-06T05:51:38;5.70;;;1.55;;
52868;SDS011;39100;53.480;6.158;2023-01-06T05:54:06;2.47;;;1.15;;
52868;SDS011;39100;53.480;6.158;2023-01-06T05:56:33;7.05;;;1.70;;
52868;SDS011;39100;53.480;6.158;2023-01-06T05:58:58;5.80;;;1.40;;
52868;SDS011;39100;53.480;6.158;2023-01-06T06:01:25;3.72;;;1.40;;
52868;SDS011;39100;53.480;6.158;2023-01-06T06:03:52;2.92;;;1.10;;
52868;SDS011;39100;53.480;6.158;2023-01-06T06:06:19;2.38;;;1.33;;
52868;SDS011;39100;53.480;6.158;2023-01-06T06:08:47;1.98;;;1.60;;
52868;SDS011;39100;53.480;6.158;2023-01-06T06:11:13;7.13;;;1.77;;
52868;SDS011;39100;53.480;6.158;2023-01-06T06:13:46;3.10;;;1.40;;
52868;SDS011;39100;53.480;6.158;2023-01-06T06:16:14;3.17;;;1.65;;
52868;SDS011;39100;53.480;6.158;2023-01-06T06:18:41;2.20;;;1.33;;
52868;SDS011;39100;53.480;6.158;2023-01-06T06:21:08;1.90;;;1.42;;
52868;SDS011;39100;53.480;6.158;2023-01-06T06:23:38;4.28;;;1.60;;
52868;SDS011;39100;53.480;6.158;2023-01-06T06:26:04;1.83;;;1.50;;
52868;SDS011;39100;53.480;6.158;2023-01-06T06:28:31;2.28;;;1.38;;
52868;SDS011;39100;53.480;6.158;2023-01-06T06:31:05;2.00;;;1.20;;
52868;SDS011;39100;53.480;6.158;2023-01-06T06:33:36;2.70;;;1.95;;
52868;SDS011;39100;53.480;6.158;2023-01-06T06:36:02;5.47;;;1.63;;
52868;SDS011;39100;53.480;6.158;2023-01-06T06:38:28;3.20;;;1.67;;
52868;SDS011;39100;53.480;6.158;2023-01-06T06:40:54;4.35;;;1.50;;
52868;SDS011;39100;53.480;6.158;2023-01-06T06:43:22;5.13;;;1.90;;
52868;SDS011;39100;53.480;6.158;2023-01-06T06:45:48;3.20;;;1.90;;
52868;SDS011;39100;53.480;6.158;2023-01-06T06:48:14;4.90;;;1.25;;
52868;SDS011;39100;53.480;6.158;2023-01-06T06:50:40;3.95;;;1.38;;
52868;SDS011;39100;53.480;6.158;2023-01-06T06:53:06;5.40;;;0.57;;
52868;SDS011;39100;53.480;6.158;2023-01-06T06:55:32;7.05;;;1.25;;
52868;SDS011;39100;53.480;6.158;2023-01-06T06:57:58;3.63;;;1.25;;
52868;SDS011;39100;53.480;6.158;2023-01-06T07:00:23;4.55;;;1.50;;
52868;SDS011;39100;53.480;6.158;2023-01-06T07:02:49;9.48;;;1.45;;
52868;SDS011;39100;53.480;6.158;2023-01-06T07:05:15;8.90;;;0.98;;
52868;SDS011;39100;53.480;6.158;2023-01-06T07:07:41;7.60;;;0.82;;
52868;SDS011;39100;53.480;6.158;2023-01-06T07:10:11;5.32;;;0.90;;
52868;SDS011;39100;53.480;6.158;2023-01-06T07:12:37;3.63;;;0.63;;
52868;SDS011;39100;53.480;6.158;2023-01-06T07:15:03;10.23;;;1.48;;
52868;SDS011;39100;53.480;6.158;2023-01-06T07:17:29;8.90;;;1.35;;
52868;SDS011;39100;53.480;6.158;2023-01-06T07:19:55;11.60;;;1.83;;
52868;SDS011;39100;53.480;6.158;2023-01-06T07:22:20;5.13;;;0.70;;
52868;SDS011;39100;53.480;6.158;2023-01-06T07:24:46;8.45;;;1.27;;
52868;SDS011;39100;53.480;6.158;2023-01-06T07:27:12;10.75;;;1.35;;
52868;SDS011;39100;53.480;6.158;2023-01-06T07:29:38;8.80;;;1.00;;
52868;SDS011;39100;53.480;6.158;2023-01-06T07:32:03;7.63;;;1.27;;
52868;SDS011;39100;53.480;6.158;2023-01-06T07:34:30;9.18;;;1.75;;
52868;SDS011;39100;53.480;6.158;2023-01-06T07:36:55;9.85;;;1.27;;
52868;SDS011;39100;53.480;6.158;2023-01-06T07:39:21;9.63;;;0.70;;
52868;SDS011;39100;53.480;6.158;2023-01-06T07:41:47;8.95;;;1.52;;
52868;SDS011;39100;53.480;6.158;2023-01-06T07:44:12;9.13;;;0.98;;
52868;SDS011;39100;53.480;6.158;2023-01-06T07:46:38;7.95;;;1.50;;
52868;SDS011;39100;53.480;6.158;2023-01-06T07:49:03;5.90;;;1.73;;
52868;SDS011;39100;53.480;6.158;2023-01-06T07:51:29;8.32;;;0.90;;
52868;SDS011;39100;53.480;6.158;2023-01-06T07:53:54;5.03;;;0.60;;
52868;SDS011;39100;53.480;6.158;2023-01-06T07:56:20;5.45;;;0.82;;
52868;SDS011;39100;53.480;6.158;2023-01-06T07:58:47;7.70;;;0.57;;
52868;SDS011;39100;53.480;6.158;2023-01-06T08:01:13;4.28;;;0.73;;
52868;SDS011;39100;53.480;6.158;2023-01-06T08:03:39;6.45;;;1.15;;
52868;SDS011;39100;53.480;6.158;2023-01-06T08:06:08;4.10;;;1.45;;
52868;SDS011;39100;53.480;6.158;2023-01-06T08:08:39;6.25;;;0.98;;
52868;SDS011;39100;53.480;6.158;2023-01-06T08:11:09;11.25;;;1.45;;
52868;SDS011;39100;53.480;6.158;2023-01-06T08:13:37;4.88;;;0.88;;
52868;SDS011;39100;53.480;6.158;2023-01-06T08:16:04;9.20;;;1.38;;
52868;SDS011;39100;53.480;6.158;2023-01-06T08:18:30;5.82;;;0.80;;
52868;SDS011;39100;53.480;6.158;2023-01-06T08:20:59;4.22;;;0.85;;
52868;SDS011;39100;53.480;6.158;2023-01-06T08:23:26;4.78;;;0.90;;
52868;SDS011;39100;53.480;6.158;2023-01-06T08:25:59;6.13;;;1.55;;
52868;SDS011;39100;53.480;6.158;2023-01-06T08:28:26;10.15;;;0.95;;
52868;SDS011;39100;53.480;6.158;2023-01-06T08:30:52;7.40;;;1.05;;
52868;SDS011;39100;53.480;6.158;2023-01-06T08:33:17;7.03;;;0.57;;
52868;SDS011;39100;53.480;6.158;2023-01-06T08:35:43;6.72;;;0.75;;
52868;SDS011;39100;53.480;6.158;2023-01-06T08:38:11;6.25;;;1.30;;
52868;SDS011;39100;53.480;6.158;2023-01-06T08:40:38;1.70;;;0.60;;
52868;SDS011;39100;53.480;6.158;2023-01-06T08:43:03;4.15;;;0.40;;
52868;SDS011;39100;53.480;6.158;2023-01-06T08:45:29;6.85;;;1.13;;
52868;SDS011;39100;53.480;6.158;2023-01-06T08:47:54;2.97;;;0.82;;
52868;SDS011;39100;53.480;6.158;2023-01-06T08:50:20;4.28;;;0.70;;
52868;SDS011;39100;53.480;6.158;2023-01-06T08:52:45;3.40;;;0.30;;
52868;SDS011;39100;53.480;6.158;2023-01-06T08:55:11;3.67;;;0.52;;
52868;SDS011;39100;53.480;6.158;2023-01-06T08:57:37;1.05;;;0.30;;
52868;SDS011;39100;53.480;6.158;2023-01-06T09:00:03;4.43;;;0.45;;
52868;SDS011;39100;53.480;6.158;2023-01-06T09:02:30;5.20;;;0.40;;
52868;SDS011;39100;53.480;6.158;2023-01-06T09:04:56;4.63;;;0.68;;
52868;SDS011;39100;53.480;6.158;2023-01-06T09:07:21;4.40;;;1.40;;
52868;SDS011;39100;53.480;6.158;2023-01-06T09:09:47;2.60;;;0.52;;
52868;SDS011;39100;53.480;6.158;2023-01-06T09:12:13;6.75;;;0.77;;
52868;SDS011;39100;53.480;6.158;2023-01-06T09:14:38;6.80;;;0.40;;
52868;SDS011;39100;53.480;6.158;2023-01-06T09:17:04;2.45;;;0.43;;
52868;SDS011;39100;53.480;6.158;2023-01-06T09:19:29;4.05;;;0.60;;
52868;SDS011;39100;53.480;6.158;2023-01-06T09:21:55;7.25;;;0.85;;
52868;SDS011;39100;53.480;6.158;2023-01-06T09:24:21;6.95;;;0.60;;
52868;SDS011;39100;53.480;6.158;2023-01-06T09:26:46;3.80;;;0.40;;
52868;SDS011;39100;53.480;6.158;2023-01-06T09:29:12;3.70;;;0.45;;
52868;SDS011;39100;53.480;6.158;2023-01-06T09:31:37;2.90;;;0.17;;
52868;SDS011;39100;53.480;6.158;2023-01-06T09:34:03;3.58;;;0.63;;
52868;SDS011;39100;53.480;6.158;2023-01-06T09:36:29;4.75;;;0.60;;
52868;SDS011;39100;53.480;6.158;2023-01-06T09:38:55;3.42;;;0.65;;
52868;SDS011;39100;53.480;6.158;2023-01-06T09:41:25;3.30;;;0.65;;
52868;SDS011;39100;53.480;6.158;2023-01-06T09:47:06;5.93;;;0.70;;
52868;SDS011;39100;53.480;6.158;2023-01-06T09:52:25;6.03;;;1.60;;
52868;SDS011;39100;53.480;6.158;2023-01-06T09:54:56;5.22;;;1.10;;
52868;SDS011;39100;53.480;6.158;2023-01-06T09:57:39;6.68;;;0.82;;
52868;SDS011;39100;53.480;6.158;2023-01-06T10:03:00;6.47;;;0.75;;
52868;SDS011;39100;53.480;6.158;2023-01-06T10:11:29;4.60;;;0.93;;
52868;SDS011;39100;53.480;6.158;2023-01-06T10:14:17;4.43;;;0.50;;
52868;SDS011;39100;53.480;6.158;2023-01-06T10:19:27;2.78;;;1.05;;
52868;SDS011;39100;53.480;6.158;2023-01-06T10:27:27;5.65;;;0.60;;
52868;SDS011;39100;53.480;6.158;2023-01-06T10:29:57;5.37;;;0.50;;
52868;SDS011;39100;53.480;6.158;2023-01-06T10:32:27;7.43;;;1.20;;
52868;SDS011;39100;53.480;6.158;2023-01-06T10:34:58;5.65;;;1.10;;
52868;SDS011;39100;53.480;6.158;2023-01-06T10:37:25;5.95;;;0.60;;
52868;SDS011;39100;53.480;6.158;2023-01-06T10:40:42;5.57;;;1.02;;
52868;SDS011;39100;53.480;6.158;2023-01-06T10:43:02;7.05;;;0.40;;
52868;SDS011;39100;53.480;6.158;2023-01-06T10:48:07;10.70;;;1.48;;
52868;SDS011;39100;53.480;6.158;2023-01-06T10:50:37;10.13;;;1.13;;
52868;SDS011;39100;53.480;6.158;2023-01-06T10:53:03;5.82;;;0.88;;
52868;SDS011;39100;53.480;6.158;2023-01-06T10:55:39;6.07;;;0.68;;
52868;SDS011;39100;53.480;6.158;2023-01-06T11:01:26;3.40;;;0.82;;
52868;SDS011;39100;53.480;6.158;2023-01-06T11:06:47;7.53;;;1.65;;
52868;SDS011;39100;53.480;6.158;2023-01-06T11:09:27;3.72;;;0.70;;
52868;SDS011;39100;53.480;6.158;2023-01-06T11:11:59;6.72;;;0.70;;
52868;SDS011;39100;53.480;6.158;2023-01-06T11:14:34;7.57;;;0.75;;
52868;SDS011;39100;53.480;6.158;2023-01-06T11:17:05;6.53;;;1.17;;
52868;SDS011;39100;53.480;6.158;2023-01-06T11:19:37;4.85;;;1.25;;
52868;SDS011;39100;53.480;6.158;2023-01-06T11:25:02;5.65;;;0.60;;
52868;SDS011;39100;53.480;6.158;2023-01-06T11:30:51;3.92;;;0.75;;
52868;SDS011;39100;53.480;6.158;2023-01-06T11:33:20;3.80;;;0.60;;
52868;SDS011;39100;53.480;6.158;2023-01-06T11:35:48;3.63;;;0.80;;
52868;SDS011;39100;53.480;6.158;2023-01-06T11:38:16;7.43;;;0.55;;
52868;SDS011;39100;53.480;6.158;2023-01-06T11:40:44;8.00;;;1.75;;
52868;SDS011;39100;53.480;6.158;2023-01-06T11:43:12;6.80;;;0.70;;
52868;SDS011;39100;53.480;6.158;2023-01-06T11:45:46;3.53;;;0.85;;
52868;SDS011;39100;53.480;6.158;2023-01-06T11:48:18;7.78;;;0.88;;
52868;SDS011;39100;53.480;6.158;2023-01-06T11:50:59;4.43;;;0.93;;
52868;SDS011;39100;53.480;6.158;2023-01-06T11:53:27;10.63;;;1.52;;
52868;SDS011;39100;53.480;6.158;2023-01-06T11:56:01;8.90;;;0.90;;
52868;SDS011;39100;53.480;6.158;2023-01-06T12:01:06;6.10;;;0.73;;
52868;SDS011;39100;53.480;6.158;2023-01-06T12:03:45;8.15;;;1.05;;
52868;SDS011;39100;53.480;6.158;2023-01-06T12:06:18;5.35;;;0.70;;
52868;SDS011;39100;53.480;6.158;2023-01-06T12:14:20;5.00;;;0.68;;
52868;SDS011;39100;53.480;6.158;2023-01-06T12:22:02;5.18;;;1.25;;
52868;SDS011;39100;53.480;6.158;2023-01-06T12:24:30;7.07;;;0.47;;
52868;SDS011;39100;53.480;6.158;2023-01-06T12:26:58;8.00;;;0.77;;
52868;SDS011;39100;53.480;6.158;2023-01-06T12:29:26;5.03;;;0.50;;
52868;SDS011;39100;53.480;6.158;2023-01-06T12:37:08;6.78;;;1.52;;
52868;SDS011;39100;53.480;6.158;2023-01-06T12:39:49;3.15;;;1.23;;
52868;SDS011;39100;53.480;6.158;2023-01-06T12:42:40;7.55;;;0.82;;
52868;SDS011;39100;53.480;6.158;2023-01-06T12:47:45;6.03;;;1.35;;
52868;SDS011;39100;53.480;6.158;2023-01-06T12:55:31;12.52;;;1.23;;
52868;SDS011;39100;53.480;6.158;2023-01-06T12:58:27;6.72;;;1.13;;
52868;SDS011;39100;53.480;6.158;2023-01-06T13:06:24;11.07;;;1.13;;
52868;SDS011;39100;53.480;6.158;2023-01-06T13:09:04;5.00;;;1.05;;
52868;SDS011;39100;53.480;6.158;2023-01-06T13:11:58;10.70;;;1.07;;
52868;SDS011;39100;53.480;6.158;2023-01-06T13:14:57;9.45;;;0.93;;
52868;SDS011;39100;53.480;6.158;2023-01-06T13:17:29;3.08;;;0.77;;
52868;SDS011;39100;53.480;6.158;2023-01-06T13:20:05;7.78;;;1.77;;
52868;SDS011;39100;53.480;6.158;2023-01-06T13:25:25;8.32;;;0.90;;
52868;SDS011;39100;53.480;6.158;2023-01-06T13:30:53;7.82;;;0.90;;
52868;SDS011;39100;53.480;6.158;2023-01-06T13:36:18;7.40;;;0.98;;
52868;SDS011;39100;53.480;6.158;2023-01-06T13:41:40;9.13;;;1.52;;
52868;SDS011;39100;53.480;6.158;2023-01-06T13:44:14;8.43;;;1.30;;
52868;SDS011;39100;53.480;6.158;2023-01-06T13:46:43;8.30;;;1.88;;
52868;SDS011;39100;53.480;6.158;2023-01-06T13:49:11;9.35;;;1.23;;
52868;SDS011;39100;53.480;6.158;2023-01-06T13:51:39;9.48;;;1.23;;
52868;SDS011;39100;53.480;6.158;2023-01-06T13:54:06;8.80;;;1.30;;
52868;SDS011;39100;53.480;6.158;2023-01-06T13:59:51;4.60;;;1.42;;
52868;SDS011;39100;53.480;6.158;2023-01-06T14:05:02;5.85;;;1.02;;
52868;SDS011;39100;53.480;6.158;2023-01-06T14:07:32;4.03;;;0.85;;
52868;SDS011;39100;53.480;6.158;2023-01-06T14:10:44;5.82;;;1.23;;
52868;SDS011;39100;53.480;6.158;2023-01-06T14:12:54;10.83;;;2.37;;
52868;SDS011;39100;53.480;6.158;2023-01-06T14:15:21;10.38;;;1.83;;
52868;SDS011;39100;53.480;6.158;2023-01-06T14:17:51;7.97;;;1.63;;
52868;SDS011;39100;53.480;6.158;2023-01-06T14:20:20;5.65;;;1.25;;
52868;SDS011;39100;53.480;6.158;2023-01-06T14:25:39;7.07;;;1.55;;
52868;SDS011;39100;53.480;6.158;2023-01-06T14:30:44;4.00;;;1.10;;
52868;SDS011;39100;53.480;6.158;2023-01-06T14:36:02;8.45;;;0.82;;
52868;SDS011;39100;53.480;6.158;2023-01-06T14:38:43;4.63;;;0.60;;
52868;SDS011;39100;53.480;6.158;2023-01-06T14:41:16;7.15;;;1.17;;
52868;SDS011;39100;53.480;6.158;2023-01-06T14:43:50;3.20;;;1.10;;
52868;SDS011;39100;53.480;6.158;2023-01-06T14:46:25;8.57;;;1.25;;
52868;SDS011;39100;53.480;6.158;2023-01-06T14:48:56;7.97;;;1.00;;
52868;SDS011;39100;53.480;6.158;2023-01-06T14:51:25;5.07;;;0.90;;
52868;SDS011;39100;53.480;6.158;2023-01-06T14:53:54;5.05;;;0.75;;
52868;SDS011;39100;53.480;6.158;2023-01-06T14:56:23;6.43;;;0.70;;
52868;SDS011;39100;53.480;6.158;2023-01-06T14:59:00;8.95;;;0.80;;
52868;SDS011;39100;53.480;6.158;2023-01-06T15:01:34;16.70;;;1.20;;
52868;SDS011;39100;53.480;6.158;2023-01-06T15:04:02;9.50;;;1.42;;
52868;SDS011;39100;53.480;6.158;2023-01-06T15:06:28;8.27;;;0.63;;
52868;SDS011;39100;53.480;6.158;2023-01-06T15:09:11;5.25;;;1.10;;
52868;SDS011;39100;53.480;6.158;2023-01-06T15:11:44;9.93;;;1.77;;
52868;SDS011;39100;53.480;6.158;2023-01-06T15:14:25;4.03;;;0.52;;
52868;SDS011;39100;53.480;6.158;2023-01-06T15:16:53;5.05;;;0.70;;
52868;SDS011;39100;53.480;6.158;2023-01-06T15:19:20;4.88;;;0.90;;
52868;SDS011;39100;53.480;6.158;2023-01-06T15:21:47;4.07;;;0.70;;
52868;SDS011;39100;53.480;6.158;2023-01-06T15:24:19;5.32;;;0.73;;
52868;SDS011;39100;53.480;6.158;2023-01-06T15:26:50;6.15;;;0.70;;
52868;SDS011;39100;53.480;6.158;2023-01-06T15:29:18;10.60;;;1.02;;
52868;SDS011;39100;53.480;6.158;2023-01-06T15:31:46;7.30;;;0.90;;
52868;SDS011;39100;53.480;6.158;2023-01-06T15:34:14;4.88;;;1.23;;
52868;SDS011;39100;53.480;6.158;2023-01-06T15:36:43;8.02;;;1.73;;
52868;SDS011;39100;53.480;6.158;2023-01-06T15:39:10;7.28;;;1.10;;
52868;SDS011;39100;53.480;6.158;2023-01-06T15:41:39;11.02;;;1.75;;
52868;SDS011;39100;53.480;6.158;2023-01-06T15:47:14;3.38;;;0.75;;
52868;SDS011;39100;53.480;6.158;2023-01-06T15:52:27;8.70;;;1.85;;
52868;SDS011;39100;53.480;6.158;2023-01-06T15:55:04;3.83;;;0.90;;
52868;SDS011;39100;53.480;6.158;2023-01-06T15:57:41;9.20;;;1.70;;
52868;SDS011;39100;53.480;6.158;2023-01-06T16:00:14;7.43;;;0.80;;
52868;SDS011;39100;53.480;6.158;2023-01-06T16:02:46;6.78;;;0.77;;
52868;SDS011;39100;53.480;6.158;2023-01-06T16:08:04;4.75;;;0.77;;
52868;SDS011;39100;53.480;6.158;2023-01-06T16:10:38;3.15;;;1.00;;
52868;SDS011;39100;53.480;6.158;2023-01-06T16:13:11;3.90;;;0.73;;
52868;SDS011;39100;53.480;6.158;2023-01-06T16:15:43;5.90;;;1.20;;
52868;SDS011;39100;53.480;6.158;2023-01-06T16:18:12;5.03;;;1.13;;
52868;SDS011;39100;53.480;6.158;2023-01-06T16:20:39;11.20;;;2.00;;
52868;SDS011;39100;53.480;6.158;2023-01-06T16:23:05;6.88;;;1.30;;
52868;SDS011;39100;53.480;6.158;2023-01-06T16:25:31;7.35;;;1.27;;
52868;SDS011;39100;53.480;6.158;2023-01-06T16:27:59;5.95;;;0.90;;
52868;SDS011;39100;53.480;6.158;2023-01-06T16:30:37;7.55;;;1.77;;
52868;SDS011;39100;53.480;6.158;2023-01-06T16:33:03;6.20;;;2.05;;
52868;SDS011;39100;53.480;6.158;2023-01-06T16:35:30;4.90;;;0.82;;
52868;SDS011;39100;53.480;6.158;2023-01-06T16:37:57;10.20;;;0.95;;
52868;SDS011;39100;53.480;6.158;2023-01-06T16:40:24;6.53;;;0.88;;
52868;SDS011;39100;53.480;6.158;2023-01-06T16:42:55;3.55;;;0.80;;
52868;SDS011;39100;53.480;6.158;2023-01-06T16:47:55;4.72;;;0.63;;
52868;SDS011;39100;53.480;6.158;2023-01-06T16:50:25;4.43;;;0.77;;
52868;SDS011;39100;53.480;6.158;2023-01-06T16:52:58;7.88;;;1.17;;
52868;SDS011;39100;53.480;6.158;2023-01-06T16:55:33;7.35;;;1.00;;
52868;SDS011;39100;53.480;6.158;2023-01-06T16:58:00;2.45;;;1.08;;
52868;SDS011;39100;53.480;6.158;2023-01-06T17:00:36;5.93;;;1.27;;
52868;SDS011;39100;53.480;6.158;2023-01-06T17:03:05;7.68;;;1.88;;
52868;SDS011;39100;53.480;6.158;2023-01-06T17:05:36;3.78;;;1.00;;
52868;SDS011;39100;53.480;6.158;2023-01-06T17:08:04;4.93;;;1.83;;
52868;SDS011;39100;53.480;6.158;2023-01-06T17:10:33;8.07;;;1.40;;
52868;SDS011;39100;53.480;6.158;2023-01-06T17:12:59;6.32;;;1.33;;
52868;SDS011;39100;53.480;6.158;2023-01-06T17:15:46;3.90;;;0.73;;
52868;SDS011;39100;53.480;6.158;2023-01-06T17:20:52;7.38;;;1.30;;
52868;SDS011;39100;53.480;6.158;2023-01-06T17:25:49;4.70;;;0.90;;
52868;SDS011;39100;53.480;6.158;2023-01-06T17:28:18;5.88;;;1.52;;